Latest Coastal Weather Observations for Newcastle Nobbys

IDN60701

Issued at 7:21 pm EDT Sunday 7 February 2016 (issued every 10 minutes, with the page automatically refreshed every 10 minutes)

About coastal observations | Map of coastal stations | Coastal observations for NSW | Marine services | Other Formats
Station Details ID: 061055 Name: NEWCASTLE NOBBYS SIGNAL STATION AWS Lat: -32.92 Lon: 151.80 Height: 33.0 m
Data from the previous 72 hours. | See also: Recent months at Newcastle Nobbys
Date/Time
EDT
Temp

°C
Wind Pressure Rain
since 9am
mm
Weather Cloud Vis
km
Sea
Height
m
Swell
Dir
 
Speed
knots
Gust
knots
hPa Trend Height
m
Period
s
Dir
07/07:00pm 24.0 SSE 9 11 - - 0.0 - - - - - - -
07/06:30pm 24.4 SSE 7 9 - - 0.0 - - - - - - -
07/06:00pm 24.3 SE 7 9 - - 0.0 - - - - - - -
07/05:30pm 24.6 SE 8 9 - - 0.0 - - - - - - -
07/05:00pm 24.6 SE 9 10 - - 0.0 - - - - - - -
07/04:30pm 24.7 SE 9 11 - - 0.0 - - - - - - -
07/04:00pm 24.9 SE 9 11 - - 0.0 - - - - - - -
07/03:30pm 25.2 SE 9 11 - - 0.0 - - - - - - -
07/03:00pm 25.2 SE 8 9 - - 0.0 - - - - - - -
07/02:30pm 25.1 SE 8 10 - - 0.0 - - - - - - -
07/02:00pm 25.3 SE 7 8 - - 0.0 - - - - - - -
07/01:30pm 25.2 SE 6 7 - - 0.0 - - - - - - -
07/01:00pm 26.5 SE 6 7 - - 0.0 - - - - - - -
07/12:30pm 25.4 ESE 6 7 - - 0.0 - - - - - - -
07/12:00pm 26.3 ESE 5 7 - - 0.0 - - - - - - -
07/11:30am 25.6 SE 5 6 - - 0.0 - - - - - - -
07/11:00am 24.7 SE 6 7 - - 0.0 - - - - - - -
07/10:30am 25.0 SE 5 6 - - 0.0 - - - - - - -
07/10:00am 25.2 ESE 4 6 - - 0.0 - - - - - - -
07/09:30am 24.2 ESE 6 7 - - 0.0 - - - - - - -
07/09:00am 23.5 ESE 6 8 - - 0.2 - - - - - - -
07/08:30am 23.9 ESE 5 7 - - 0.2 - - - - - - -
07/08:00am 23.3 ESE 6 8 - - 0.2 - - - - - - -
07/07:30am 22.4 ESE 8 9 - - 0.2 - - - - - - -
07/07:00am 22.1 E 6 10 - - 0.2 - - - - - - -
07/06:30am 21.9 E 8 10 - - 0.2 - - - - - - -
07/06:00am 21.9 E 8 9 - - 0.2 - - - - - - -
07/05:30am 21.8 ESE 6 8 - - 0.2 - - - - - - -
07/05:00am 21.8 ESE 8 10 - - 0.2 - - - - - - -
07/04:30am 21.9 ESE 8 9 - - 0.2 - - - - - - -
07/04:00am 21.9 ESE 9 11 - - 0.2 - - - - - - -
07/03:30am 22.1 ESE 8 11 - - 0.2 - - - - - - -
07/03:00am 21.9 ESE 8 9 - - 0.2 - - - - - - -
07/02:30am 22.0 E 8 10 - - 0.2 - - - - - - -
07/02:00am 22.1 E 8 12 - - 0.2 - - - - - - -
07/01:30am 22.3 ESE 7 9 - - 0.2 - - - - - - -
07/01:00am 22.2 ESE 7 8 - - 0.2 - - - - - - -
07/12:30am 22.3 ESE 8 11 - - 0.2 - - - - - - -
07/12:00am 22.4 E 9 11 - - 0.2 - - - - - - -
 
Date/Time
EDT
Temp

°C
Wind Pressure Rain
since 9am
mm
Weather Cloud Vis
km
Sea
Height
m
Swell
Dir
 
Speed
knots
Gust
knots
hPa Trend Height
m
Period
s
Dir
06/11:30pm 22.1 ESE 6 8 - - 0.2 - - - - - - -
06/11:00pm 22.1 E 9 13 - - 0.2 - - - - - - -
06/10:30pm 22.5 ESE 10 12 - - 0.2 - - - - - - -
06/10:00pm 22.6 ESE 12 14 - - 0.2 - - - - - - -
06/09:30pm 22.8 SE 13 15 - - 0.2 - - - - - - -
06/09:00pm 22.7 ESE 11 13 - - 0.2 - - - - - - -
06/08:30pm 22.7 ESE 12 15 - - 0.2 - - - - - - -
06/08:00pm 22.8 SE 14 16 - - 0.2 - - - - - - -
06/07:30pm 23.0 SE 12 15 - - 0.2 - - - - - - -
06/07:00pm 23.0 SE 11 12 - - 0.2 - - - - - - -
06/06:30pm 23.4 SE 11 13 - - 0.2 - - - - - - -
06/06:00pm 23.4 SE 14 15 - - 0.2 - - - - - - -
06/05:30pm 23.4 SE 14 17 - - 0.2 - - - - - - -
06/05:00pm 23.7 SE 14 17 - - 0.2 - - - - - - -
06/04:30pm 24.4 SE 12 14 - - 0.2 - - - - - - -
06/04:00pm 23.6 ESE 13 14 - - 0.2 - - - - - - -
06/03:30pm 24.0 ESE 12 13 - - 0.2 - - - - - - -
06/03:00pm 23.8 ESE 14 17 - - 0.2 - - - - - - -
06/02:30pm 24.1 SE 10 12 - - 0.2 - - - - - - -
06/02:00pm 24.3 ESE 12 15 - - 0.2 - - - - - - -
06/01:30pm 23.8 SE 13 16 - - 0.2 - - - - - - -
06/01:00pm 23.5 ESE 13 16 - - 0.2 - - - - - - -
06/12:30pm 23.8 SE 9 13 - - 0.2 - - - - - - -
06/12:00pm 24.3 ESE 11 13 - - 0.2 - - - - - - -
06/11:30am 24.1 ESE 13 15 - - 0.2 - - - - - - -
06/11:00am 23.4 SE 3 5 - - 0.2 - - - - - - -
06/10:30am 23.4 SE 1 3 - - 0.2 - - - - - - -
06/10:00am 20.9 CALM 0 1 - - 0.2 - - - - - - -
06/09:30am 19.9 SE 15 18 - - 0.2 - - - - - - -
06/09:00am 20.5 E 16 18 - - 11.6 Recent precip. - - - - - -
06/08:30am 21.4 SE 11 15 - - 11.4 - - - - - - -
06/08:00am 21.1 SE 24 28 - - 11.4 - - - - - - -
06/07:30am 21.9 ESE 18 23 - - 11.4 - - - - - - -
06/07:00am 22.3 ESE 15 19 - - 11.4 - - - - - - -
06/06:30am 22.7 SE 17 20 - - 11.4 - - - - - - -
06/06:00am 22.8 SSE 14 17 - - 11.4 - - - - - - -
06/05:30am 22.8 SE 16 19 - - 11.4 - - - - - - -
06/05:00am 22.3 S 17 20 - - 11.4 - - - - - - -
06/04:30am 22.2 SSE 19 23 - - 11.4 - - - - - - -
06/04:00am 21.9 S 19 22 - - 11.4 - - - - - - -
06/03:30am 21.8 S 15 19 - - 11.4 - - - - - - -
06/03:00am 20.9 S 20 24 - - 11.4 - - - - - - -
06/02:30am 21.0 S 24 28 - - 11.4 - - - - - - -
06/02:00am 20.5 S 19 22 - - 11.4 - - - - - - -
06/01:30am 21.2 SSE 21 25 - - 11.4 - - - - - - -
06/01:00am 20.5 SSE 21 26 - - 11.4 - - - - - - -
06/12:50am 20.5 SSE 15 26 - - 11.4 - - - - - - -
06/12:30am 19.7 SSE 12 16 - - 10.8 - - - - - - -
06/12:00am 19.8 ESE 14 17 - - 6.2 Rain - - - - - -
 
Date/Time
EDT
Temp

°C
Wind Pressure Rain
since 9am
mm
Weather Cloud Vis
km
Sea
Height
m
Swell
Dir
 
Speed
knots
Gust
knots
hPa Trend Height
m
Period
s
Dir
05/11:39pm 19.9 SSE 22 27 - - 4.6 - - - - - - -
05/11:33pm 20.2 S 17 27 - - 4.2 - - - - - - -
05/11:30pm 20.0 S 14 20 - - 2.8 - - - - - - -
05/11:00pm 20.4 S 22 26 - - 1.6 - - - - - - -
05/10:30pm 21.1 SSE 25 33 - - 1.6 - - - - - - -
05/10:00pm 20.3 S 21 25 - - 1.2 - - - - - - -
05/09:30pm 21.2 SSE 25 32 - - 1.2 - - - - - - -
05/09:27pm 21.4 SSE 22 32 - - 1.0 - - - - - - -
05/09:00pm 20.7 SSE 21 27 - - 1.0 Recent precip. - - - - - -
05/08:30pm 21.4 S 20 23 - - 0.8 - - - - - - -
05/08:00pm 20.2 SSE 25 30 - - 0.8 - - - - - - -
05/07:30pm 21.1 SSE 25 31 - - 0.2 - - - - - - -
05/07:00pm 21.7 SSE 26 30 - - 0.2 - - - - - - -
05/06:30pm 22.7 SSE 23 27 - - 0.2 - - - - - - -
05/06:00pm 22.8 S 23 27 - - 0.2 - - - - - - -
05/05:30pm 22.6 S 22 26 - - 0.2 - - - - - - -
05/05:00pm 21.2 S 22 29 - - 0.2 - - - - - - -
05/04:30pm 23.0 SSE 23 28 - - 0.2 - - - - - - -
05/04:00pm 22.8 SSE 24 28 - - 0.2 - - - - - - -
05/03:30pm 22.8 SSE 24 29 - - 0.2 - - - - - - -
05/03:00pm 22.8 S 24 29 - - 0.2 - - - - - - -
05/02:30pm 22.9 S 23 27 - - 0.2 - - - - - - -
05/02:00pm 23.2 SSE 24 30 - - 0.2 - - - - - - -
05/01:30pm 23.1 SSE 24 28 - - 0.2 - - - - - - -
05/01:00pm 23.1 S 24 29 - - 0.2 - - - - - - -
05/12:30pm 23.0 S 25 30 - - 0.2 - - - - - - -
05/12:00pm 22.9 S 26 30 - - 0.2 - - - - - - -
05/11:30am 22.7 SSE 26 32 - - 0.2 - - - - - - -
05/11:00am 22.7 SSE 28 34 - - 0.2 - - - - - - -
05/10:30am 22.2 S 27 32 - - 0.2 - - - - - - -
05/10:00am 22.0 S 26 31 - - 0.2 - - - - - - -
05/09:30am 21.5 S 24 32 - - 0.2 - - - - - - -
05/09:08am 21.1 S 24 36 - - 0.2 - - - - - - -
05/09:00am 20.8 S 26 32 - - 2.4 Recent precip. - - - - - -
05/08:30am 21.1 S 28 34 - - 2.4 - - - - - - -
05/08:00am 22.0 S 26 32 - - 2.2 - - - - - - -
05/07:30am 22.2 S 26 31 - - 2.2 - - - - - - -
05/07:00am 22.1 S 26 31 - - 2.2 - - - - - - -
05/06:30am 22.1 S 26 32 - - 2.2 - - - - - - -
05/06:00am 21.9 S 25 32 - - 2.2 - - - - - - -
05/05:30am 22.2 S 26 31 - - 2.2 - - - - - - -
05/05:00am 22.2 S 25 30 - - 2.2 - - - - - - -
05/04:30am 21.9 S 23 29 - - 2.2 - - - - - - -
05/04:00am 22.4 S 24 29 - - 2.2 - - - - - - -
05/03:30am 22.3 S 24 29 - - 2.2 - - - - - - -
05/03:00am 22.2 S 27 33 - - 2.2 - - - - - - -
05/02:30am 22.4 S 26 31 - - 2.2 - - - - - - -
05/02:00am 22.0 S 26 31 - - 2.2 - - - - - - -
05/01:30am 22.5 S 27 33 - - 2.2 - - - - - - -
05/01:00am 22.2 S 27 33 - - 2.2 - - - - - - -
05/12:33am 21.8 S 27 37 - - 2.0 - - - - - - -
05/12:30am 22.3 S 25 33 - - 2.0 - - - - - - -
05/12:00am 22.2 S 29 34 - - 1.8 - - - - - - -
 
Date/Time
EDT
Temp

°C
Wind Pressure Rain
since 9am
mm
Weather Cloud Vis
km
Sea
Height
m
Swell
Dir
 
Speed
knots
Gust
knots
hPa Trend Height
m
Period
s
Dir
04/11:30pm 21.7 S 29 35 - - 1.8 - - - - - - -
04/11:00pm 21.9 S 28 36 - - 1.8 - - - - - - -
04/10:30pm 22.4 S 29 35 - - 1.8 - - - - - - -
04/10:00pm 22.5 S 28 36 - - 1.8 - - - - - - -
04/09:30pm 22.7 S 29 35 - - 1.8 - - - - - - -
04/09:00pm 22.7 S 32 40 - - 1.8 - - - - - - -
04/08:30pm 22.7 S 33 41 - - 1.8 - - - - - - -
04/08:00pm 22.8 S 32 39 - - 1.8 - - - - - - -
04/07:30pm 22.3 S 32 42 - - 1.8 - - - - - - -

Other Formats:

Comma delimited format used in spreadsheet applications
http://www.bom.gov.au/fwo/IDN60701/IDN60701.94774.axf

JavaScript Object Notation format (JSON) in row-major order
http://www.bom.gov.au/fwo/IDN60701/IDN60701.94774.json